Time;durP1;ratioP1;P1;durP2;ratioP2;P2;SDS_P1;SDS_P2;PMS_P1;PMS_P2;Temp;Humidity;BMP_temperature;BMP_pressure;BME280_temperature;BME280_humidity;BME280_pressure;Samples;Min_cycle;Max_cycle;Signal;HPM_P1;HPM_P2
2022/06/13 00:00:32;;;;;;;6.40;3.93;;;21.50;99.90;;;;;;5095924;28;20993;-73
2022/06/13 00:03:00;;;;;;;4.77;4.40;;;21.40;99.90;;;;;;5096209;28;20976;-73
2022/06/13 00:05:27;;;;;;;4.40;4.10;;;21.30;99.90;;;;;;5096173;28;20712;-73
2022/06/13 00:07:53;;;;;;;5.30;4.50;;;21.20;99.90;;;;;;5094730;28;20628;-73
2022/06/13 00:10:20;;;;;;;6.20;4.50;;;21.20;99.90;;;;;;5096149;28;20596;-73
2022/06/13 00:12:46;;;;;;;5.90;4.03;;;21.20;99.90;;;;;;5096470;28;20657;-73
2022/06/13 00:15:15;;;;;;;5.97;4.27;;;21.10;99.90;;;;;;5096151;28;20610;-73
2022/06/13 00:17:42;;;;;;;4.73;4.40;;;21.10;99.90;;;;;;5096203;28;20656;-73
2022/06/13 00:20:09;;;;;;;5.73;5.30;;;21.00;99.90;;;;;;5095795;28;21160;-73
2022/06/13 00:22:35;;;;;;;5.37;4.30;;;20.90;99.90;;;;;;5096107;28;20605;-73
2022/06/13 00:25:02;;;;;;;4.50;4.10;;;20.80;99.90;;;;;;5096195;28;21088;-72
2022/06/13 00:27:29;;;;;;;8.43;5.37;;;20.70;99.90;;;;;;5096501;28;20616;-73
2022/06/13 00:29:55;;;;;;;4.87;4.27;;;20.60;99.90;;;;;;5094903;28;20620;-73
2022/06/13 00:32:22;;;;;;;4.63;4.30;;;20.50;99.90;;;;;;5094893;28;20711;-74
2022/06/13 00:34:48;;;;;;;4.87;4.37;;;20.50;99.90;;;;;;5094777;28;20614;-73
2022/06/13 00:37:15;;;;;;;4.70;4.27;;;20.40;99.90;;;;;;5096069;28;20650;-73
2022/06/13 00:39:41;;;;;;;5.50;4.90;;;20.40;99.90;;;;;;5096272;28;20605;-73
2022/06/13 00:42:09;;;;;;;8.23;4.93;;;20.30;99.90;;;;;;5095824;28;20609;-73
2022/06/13 00:44:38;;;;;;;7.13;4.90;;;20.30;99.90;;;;;;5093437;28;20655;-73
2022/06/13 00:47:05;;;;;;;5.03;4.50;;;20.20;99.90;;;;;;5093940;28;20642;-73
2022/06/13 00:49:41;;;;;;;6.93;4.67;;;20.20;99.90;;;;;;5095378;28;21001;-73
2022/06/13 00:52:17;;;;;;;5.77;4.97;;;20.10;99.90;;;;;;5096015;28;20600;-73
2022/06/13 00:54:45;;;;;;;6.67;4.63;;;20.10;99.90;;;;;;5096146;28;21103;-73
2022/06/13 00:57:16;;;;;;;5.37;4.63;;;20.10;99.90;;;;;;5096211;28;20703;-73
2022/06/13 00:59:44;;;;;;;5.03;4.50;;;20.00;99.90;;;;;;5096326;28;20627;-73
2022/06/13 01:02:11;;;;;;;4.80;4.50;;;20.00;99.90;;;;;;5096123;28;20960;-73
2022/06/13 01:04:40;;;;;;;4.83;4.43;;;20.00;99.90;;;;;;5095506;28;20627;-73
2022/06/13 01:07:09;;;;;;;5.90;4.53;;;19.90;99.90;;;;;;5095022;28;20701;-73
2022/06/13 01:12:25;;;;;;;5.47;4.20;;;19.90;99.90;;;;;;5095045;28;20623;-73
2022/06/13 01:14:54;;;;;;;7.60;5.30;;;19.90;99.90;;;;;;5094856;28;20601;-73
2022/06/13 01:17:47;;;;;;;8.50;5.03;;;19.90;99.90;;;;;;5094935;28;20652;-73
2022/06/13 01:20:34;;;;;;;7.83;5.77;;;19.80;99.90;;;;;;5094622;28;21100;-73
2022/06/13 01:23:46;;;;;;;5.30;4.50;;;19.80;99.90;;;;;;5095013;28;20577;-73
2022/06/13 01:26:21;;;;;;;5.13;4.70;;;19.70;99.90;;;;;;5094528;28;21217;-73
2022/06/13 01:29:03;;;;;;;5.00;4.10;;;19.80;99.90;;;;;;5093059;28;21030;-73
2022/06/13 01:32:14;;;;;;;7.87;4.60;;;19.70;99.90;;;;;;5094566;28;20574;-74
2022/06/13 01:34:51;;;;;;;5.80;4.53;;;19.70;99.90;;;;;;5051679;28;20642;-73
2022/06/13 01:37:28;;;;;;;5.03;4.23;;;19.60;99.90;;;;;;5088812;28;21057;-73
2022/06/13 01:40:14;;;;;;;5.67;4.53;;;19.50;99.90;;;;;;5094534;28;20569;-73
2022/06/13 01:42:59;;;;;;;7.77;4.93;;;19.40;99.90;;;;;;5094302;28;20581;-73
2022/06/13 01:46:01;;;;;;;8.77;5.20;;;19.50;99.90;;;;;;5094376;28;20604;-73
2022/06/13 01:48:44;;;;;;;5.80;4.60;;;19.40;99.90;;;;;;5094067;28;20657;-73
2022/06/13 01:51:27;;;;;;;8.53;4.70;;;19.30;99.90;;;;;;5092440;28;20625;-73
2022/06/13 01:54:17;;;;;;;5.23;4.77;;;19.10;99.90;;;;;;5094390;28;20586;-73
2022/06/13 01:56:53;;;;;;;9.07;4.83;;;18.80;99.90;;;;;;5094439;28;20581;-73
2022/06/13 01:59:27;;;;;;;4.33;4.03;;;18.30;99.90;;;;;;5093994;28;20612;-73
2022/06/13 02:02:03;;;;;;;5.53;4.37;;;18.20;99.90;;;;;;5093940;28;21139;-73
2022/06/13 02:04:37;;;;;;;4.33;3.80;;;17.90;99.90;;;;;;5094389;28;20585;-73
2022/06/13 02:07:06;;;;;;;4.93;3.80;;;17.80;99.90;;;;;;5093794;28;20593;-73
2022/06/13 02:09:41;;;;;;;4.33;3.93;;;17.70;99.90;;;;;;5094312;28;20657;-73
2022/06/13 02:12:10;;;;;;;7.57;4.33;;;17.70;99.90;;;;;;5075938;28;20618;-73
2022/06/13 02:14:42;;;;;;;5.53;3.50;;;17.70;99.90;;;;;;5094465;28;20609;-73
2022/06/13 02:17:12;;;;;;;5.17;3.20;;;17.70;99.90;;;;;;5092710;28;20613;-73
2022/06/13 02:20:00;;;;;;;4.27;3.37;;;17.60;99.90;;;;;;5094129;28;20610;-73
2022/06/13 02:22:31;;;;;;;4.03;2.87;;;17.50;99.90;;;;;;5093958;28;20577;-73
2022/06/13 02:25:02;;;;;;;6.23;3.10;;;17.40;99.90;;;;;;5093624;28;21033;-73
2022/06/13 02:27:35;;;;;;;5.17;3.23;;;17.20;99.90;;;;;;5093955;28;20647;-73
2022/06/13 02:30:21;;;;;;;4.20;2.90;;;17.10;99.90;;;;;;5093775;28;20666;-74
2022/06/13 02:32:57;;;;;;;10.47;3.70;;;17.00;99.90;;;;;;5092022;28;20640;-73
2022/06/13 02:35:35;;;;;;;6.50;2.80;;;17.00;99.90;;;;;;5093666;28;20596;-73
2022/06/13 02:38:11;;;;;;;7.73;3.50;;;17.00;99.90;;;;;;5093281;28;20652;-73
2022/06/13 02:40:45;;;;;;;4.57;2.63;;;16.90;99.90;;;;;;5093938;28;20569;-73
2022/06/13 02:43:15;;;;;;;5.33;2.30;;;17.00;99.90;;;;;;5093013;28;20621;-73
2022/06/13 02:45:55;;;;;;;6.87;3.37;;;17.00;99.90;;;;;;5093398;28;20621;-73
2022/06/13 02:48:30;;;;;;;7.80;3.40;;;17.00;99.90;;;;;;5093082;28;21241;-73
2022/06/13 02:51:18;;;;;;;4.80;2.93;;;17.00;99.90;;;;;;5093677;28;20574;-72
2022/06/13 02:54:08;;;;;;;9.30;3.10;;;17.10;99.90;;;;;;5093633;28;20581;-73
2022/06/13 03:00:11;;;;;;;4.30;2.50;;;17.00;99.90;;;;;;5097549;28;20630;-73
2022/06/13 03:02:59;;;;;;;4.33;2.40;;;16.70;99.90;;;;;;5097496;28;20658;-73
2022/06/13 03:05:51;;;;;;;7.30;2.50;;;16.60;99.90;;;;;;5097426;28;20566;-72
2022/06/13 03:08:52;;;;;;;6.47;2.73;;;16.50;99.90;;;;;;5097646;28;20572;-73
2022/06/13 03:11:59;;;;;;;8.90;2.70;;;16.50;99.90;;;;;;5097838;28;20605;-73
2022/06/13 03:14:48;;;;;;;2.80;2.00;;;16.40;99.90;;;;;;5096557;28;20581;-74
2022/06/13 03:17:33;;;;;;;3.80;2.60;;;16.40;99.90;;;;;;5097187;28;20605;-73
2022/06/13 03:20:22;;;;;;;6.77;3.00;;;16.40;99.90;;;;;;5097007;28;20577;-73
2022/06/13 03:22:54;;;;;;;7.10;3.43;;;16.40;99.90;;;;;;5097475;28;20580;-72
2022/06/13 03:25:44;;;;;;;5.47;3.10;;;16.30;99.90;;;;;;5097062;28;20576;-73
2022/06/13 03:28:37;;;;;;;7.40;2.40;;;16.30;99.90;;;;;;5098231;28;20569;-77
2022/06/13 03:31:28;;;;;;;8.57;2.80;;;16.40;99.90;;;;;;5096303;28;20613;-77
2022/06/13 03:34:00;;;;;;;7.40;2.93;;;16.40;99.90;;;;;;5098069;28;20680;-77
2022/06/13 03:36:40;;;;;;;5.50;2.93;;;16.50;99.90;;;;;;5097778;28;20569;-77
2022/06/13 03:39:16;;;;;;;8.80;3.27;;;16.50;99.90;;;;;;5097754;28;20628;-77
2022/06/13 03:42:11;;;;;;;5.93;2.80;;;16.50;99.90;;;;;;5097978;28;20566;-77
2022/06/13 03:44:55;;;;;;;9.80;3.27;;;16.60;99.90;;;;;;5097981;28;21040;-77
2022/06/13 03:47:46;;;;;;;3.33;3.03;;;16.60;99.90;;;;;;5095920;28;20637;-77
2022/06/13 03:50:24;;;;;;;7.83;3.10;;;16.70;99.90;;;;;;5097485;28;20546;-78
2022/06/13 03:53:17;;;;;;;3.90;2.53;;;16.70;99.90;;;;;;5097811;28;21018;-77
2022/06/13 03:56:05;;;;;;;7.87;2.60;;;16.60;99.90;;;;;;5098107;28;21119;-77
2022/06/13 03:58:39;;;;;;;5.17;3.03;;;16.60;99.90;;;;;;5097750;28;20629;-77
2022/06/13 04:01:17;;;;;;;4.47;2.60;;;16.40;99.90;;;;;;5097173;28;20568;-77
2022/06/13 04:03:44;;;;;;;3.93;2.57;;;16.20;99.90;;;;;;5097753;28;20574;-78
2022/06/13 04:06:29;;;;;;;7.47;3.50;;;16.00;99.90;;;;;;5096685;28;20613;-77
2022/06/13 04:08:57;;;;;;;3.87;2.50;;;15.90;99.90;;;;;;5097028;28;20672;-77
2022/06/13 04:11:48;;;;;;;8.30;2.50;;;16.00;99.90;;;;;;5097543;28;20609;-78
2022/06/13 04:14:29;;;;;;;4.27;2.57;;;16.00;99.90;;;;;;5097738;28;20941;-77
2022/06/13 04:17:24;;;;;;;3.40;2.47;;;16.10;99.90;;;;;;5097434;28;21170;-78
2022/06/13 04:20:18;;;;;;;6.80;3.00;;;16.30;99.90;;;;;;5096985;28;20650;-78
2022/06/13 04:23:18;;;;;;;7.03;2.67;;;16.50;99.90;;;;;;5095394;28;20600;-77
2022/06/13 04:26:03;;;;;;;5.87;2.30;;;16.50;99.90;;;;;;5095156;28;20648;-77
2022/06/13 04:28:42;;;;;;;7.63;3.27;;;16.60;99.90;;;;;;5095360;28;20664;-77
2022/06/13 04:31:11;;;;;;;11.50;2.87;;;16.60;99.90;;;;;;5096763;28;20610;-77
2022/06/13 04:33:48;;;;;;;10.37;2.77;;;16.70;99.90;;;;;;5096424;28;20593;-77
2022/06/13 04:36:16;;;;;;;4.53;2.90;;;16.80;99.90;;;;;;5096886;28;20573;-77
2022/06/13 04:38:47;;;;;;;8.23;2.97;;;16.80;99.90;;;;;;5096287;28;20606;-77
2022/06/13 04:41:15;;;;;;;7.93;3.13;;;16.80;99.90;;;;;;5095293;28;20621;-77
2022/06/13 04:43:47;;;;;;;5.10;2.67;;;16.60;99.90;;;;;;5096552;28;20613;-77
2022/06/13 04:46:21;;;;;;;5.80;2.73;;;16.80;99.90;;;;;;5078994;28;21012;-77
2022/06/13 04:48:53;;;;;;;5.73;2.57;;;16.80;99.90;;;;;;5096629;28;21164;-77
2022/06/13 04:51:24;;;;;;;7.37;2.90;;;16.70;99.90;;;;;;5097395;28;20664;-77
2022/06/13 04:54:06;;;;;;;9.60;2.70;;;16.70;99.90;;;;;;5097628;28;20585;-76
2022/06/13 04:56:34;;;;;;;4.33;3.20;;;16.70;99.90;;;;;;5097100;28;20629;-77
2022/06/13 04:59:01;;;;;;;6.87;3.00;;;16.80;99.90;;;;;;5096445;28;20613;-77
2022/06/13 05:01:33;;;;;;;7.17;3.27;;;16.90;99.90;;;;;;5096438;28;20973;-77
2022/06/13 05:04:02;;;;;;;8.60;3.03;;;17.10;99.90;;;;;;5095832;28;20663;-76
2022/06/13 05:06:45;;;;;;;7.53;3.80;;;17.40;99.90;;;;;;5096889;28;20610;-77
2022/06/13 05:09:16;;;;;;;13.13;3.13;;;17.60;99.90;;;;;;5096100;28;20656;-77
2022/06/13 05:11:46;;;;;;;8.53;2.93;;;17.90;99.90;;;;;;5096921;28;20566;-77
2022/06/13 05:14:35;;;;;;;9.20;3.40;;;18.20;99.90;;;;;;5095118;28;20643;-77
2022/06/13 05:17:51;;;;;;;8.80;3.37;;;18.40;99.90;;;;;;5096390;28;20579;-77
2022/06/13 05:20:42;;;;;;;7.77;3.47;;;18.70;99.90;;;;;;5086693;28;20624;-76
2022/06/13 05:23:34;;;;;;;8.40;3.13;;;18.80;99.90;;;;;;5096643;28;20570;-76
2022/06/13 05:26:01;;;;;;;4.57;3.30;;;18.70;99.90;;;;;;5095085;28;21012;-76
2022/06/13 05:28:31;;;;;;;7.07;3.70;;;18.60;99.90;;;;;;5095329;28;20652;-76
2022/06/13 05:31:01;;;;;;;8.80;3.37;;;18.40;99.90;;;;;;5096092;28;20646;-76
2022/06/13 05:33:33;;;;;;;6.33;2.87;;;17.80;99.90;;;;;;5096194;28;20614;-76
2022/06/13 05:36:03;;;;;;;8.67;6.60;;;17.70;99.90;;;;;;5096060;28;20562;-76
2022/06/13 05:38:34;;;;;;;10.57;3.63;;;17.90;99.90;;;;;;5095558;28;20978;-76
2022/06/13 05:41:01;;;;;;;7.73;3.30;;;18.20;99.90;;;;;;5095817;28;20574;-76
2022/06/13 05:43:27;;;;;;;3.20;2.47;;;18.30;99.90;;;;;;5095595;28;21148;-77
2022/06/13 05:45:54;;;;;;;7.87;3.40;;;18.50;99.90;;;;;;5095289;28;20621;-76
2022/06/13 05:48:22;;;;;;;8.63;3.10;;;18.70;99.90;;;;;;5093870;28;20672;-77
2022/06/13 05:50:49;;;;;;;11.13;4.10;;;18.90;99.90;;;;;;5095117;28;20602;-77
2022/06/13 05:53:20;;;;;;;7.13;3.73;;;19.00;99.90;;;;;;5095342;28;21086;-77
2022/06/13 05:55:47;;;;;;;5.30;3.17;;;19.00;99.90;;;;;;5093729;28;20620;-77
2022/06/13 05:58:17;;;;;;;4.50;3.37;;;19.00;99.90;;;;;;5094291;28;20667;-77
2022/06/13 06:00:47;;;;;;;6.37;3.60;;;19.00;99.90;;;;;;5095499;28;20613;-77
2022/06/13 06:03:14;;;;;;;4.67;4.00;;;19.10;99.90;;;;;;5096611;28;20578;-76
2022/06/13 06:05:41;;;;;;;6.10;3.83;;;19.00;99.90;;;;;;5097161;28;20624;-76
2022/06/13 06:08:18;;;;;;;6.03;3.47;;;19.00;99.90;;;;;;5096728;28;21238;-75
2022/06/13 06:10:45;;;;;;;8.23;3.50;;;19.30;99.90;;;;;;5097877;28;20818;-76
2022/06/13 06:13:12;;;;;;;5.20;3.87;;;19.50;99.90;;;;;;5094544;28;20583;-78
2022/06/13 06:15:40;;;;;;;6.40;3.33;;;19.50;99.90;;;;;;5094780;28;20600;-76
2022/06/13 06:18:07;;;;;;;7.60;4.23;;;19.60;99.90;;;;;;5094416;28;20620;-75
2022/06/13 06:20:36;;;;;;;8.40;5.20;;;19.40;99.90;;;;;;5095867;28;20613;-75
2022/06/13 06:23:03;;;;;;;5.03;4.00;;;19.50;99.90;;;;;;5096058;28;20602;-76
2022/06/13 06:25:31;;;;;;;7.33;4.20;;;19.50;99.90;;;;;;5094255;28;20674;-77
2022/06/13 06:27:57;;;;;;;5.80;3.73;;;19.60;99.90;;;;;;5095025;28;20622;-77
2022/06/13 06:30:27;;;;;;;9.23;3.97;;;19.60;99.90;;;;;;5098073;28;21246;-77
2022/06/13 06:32:57;;;;;;;4.13;3.73;;;19.80;99.90;;;;;;5102255;28;20605;-77
2022/06/13 06:35:26;;;;;;;7.33;4.17;;;19.70;99.90;;;;;;5102316;28;20687;-76
2022/06/13 06:37:54;;;;;;;4.87;4.40;;;19.90;99.90;;;;;;5102279;28;20616;-76
2022/06/13 06:40:23;;;;;;;10.37;4.57;;;19.90;99.90;;;;;;5101776;28;20609;-77
2022/06/13 06:42:50;;;;;;;12.77;3.93;;;19.80;99.90;;;;;;5101839;28;20635;-76
2022/06/13 06:45:17;;;;;;;5.43;4.00;;;19.90;99.90;;;;;;5101354;28;20616;-77
2022/06/13 06:47:44;;;;;;;6.68;5.07;;;20.00;99.90;;;;;;5101482;28;20762;-76
2022/06/13 06:50:13;;;;;;;5.90;4.10;;;20.20;99.90;;;;;;5102331;28;20183;-76
2022/06/13 06:52:41;;;;;;;8.97;3.97;;;20.00;99.90;;;;;;5100882;28;20609;-76
2022/06/13 07:00:50;;;;;;;4.60;3.93;;;20.60;99.90;;;;;;5099245;28;21068;-74
2022/06/13 07:03:17;;;;;;;7.90;4.10;;;20.70;99.90;;;;;;5099702;28;20617;-75
2022/06/13 07:05:46;;;;;;;4.50;4.10;;;20.60;99.90;;;;;;5100074;28;20605;-75
2022/06/13 07:08:14;;;;;;;5.50;4.53;;;20.60;99.90;;;;;;5100245;28;20725;-76
2022/06/13 07:10:41;;;;;;;5.30;4.53;;;20.90;99.90;;;;;;5101509;28;20613;-76
2022/06/13 07:13:08;;;;;;;5.80;3.90;;;20.80;99.90;;;;;;5101415;28;20624;-76
2022/06/13 07:15:34;;;;;;;7.03;4.90;;;20.70;99.90;;;;;;5100921;28;20601;-75
2022/06/13 07:18:00;;;;;;;5.07;4.50;;;20.60;99.90;;;;;;5101101;28;20609;-75
2022/06/13 07:20:27;;;;;;;10.40;4.40;;;20.80;99.90;;;;;;5101267;28;20603;-76
2022/06/13 07:22:54;;;;;;;5.37;4.30;;;21.20;99.90;;;;;;5101425;28;20608;-76
2022/06/13 07:25:24;;;;;;;8.20;4.90;;;21.10;99.90;;;;;;5100934;28;20616;-77
2022/06/13 07:27:51;;;;;;;6.83;4.57;;;21.00;99.90;;;;;;5102543;28;21135;-77
2022/06/13 07:30:21;;;;;;;9.27;4.40;;;21.10;99.90;;;;;;5102781;28;20620;-79
2022/06/13 07:32:48;;;;;;;4.70;4.30;;;21.00;99.90;;;;;;5086610;28;20632;-78
2022/06/13 07:35:18;;;;;;;10.80;5.30;;;21.20;99.90;;;;;;5101450;28;20958;-78
2022/06/13 07:40:30;;;;;;;9.30;4.83;;;21.40;99.90;;;;;;5102800;28;20572;-78
2022/06/13 07:43:01;;;;;;;5.70;4.53;;;21.40;99.90;;;;;;5097287;28;20631;-78
2022/06/13 07:45:30;;;;;;;6.57;5.10;;;21.20;99.90;;;;;;5097359;28;20670;-78
2022/06/13 07:47:57;;;;;;;8.00;5.23;;;21.00;99.90;;;;;;5097619;28;20992;-73
2022/06/13 07:50:25;;;;;;;5.93;5.53;;;21.40;99.90;;;;;;5097290;28;21143;-74
2022/06/13 07:52:53;;;;;;;9.63;4.50;;;21.50;99.90;;;;;;5097702;28;20824;-75
2022/06/13 07:55:20;;;;;;;9.40;5.00;;;21.50;99.90;;;;;;5096655;28;20616;-74
2022/06/13 07:57:47;;;;;;;10.77;4.70;;;21.10;99.90;;;;;;5096756;28;20991;-73
2022/06/13 08:00:21;;;;;;;6.40;4.53;;;21.10;99.90;;;;;;5096456;28;20601;-74
2022/06/13 08:02:48;;;;;;;11.57;5.30;;;21.30;99.90;;;;;;5096849;28;20578;-74
2022/06/13 08:05:14;;;;;;;8.80;4.60;;;21.60;99.90;;;;;;5096279;28;20613;-74
2022/06/13 08:07:40;;;;;;;6.50;4.50;;;21.70;99.90;;;;;;5097343;28;20666;-74
2022/06/13 08:10:07;;;;;;;8.93;5.27;;;21.70;99.90;;;;;;5096786;28;20653;-74
2022/06/13 08:12:34;;;;;;;4.97;4.53;;;21.80;99.90;;;;;;5095488;28;20674;-74
2022/06/13 08:15:00;;;;;;;6.20;5.20;;;22.50;99.90;;;;;;5095871;28;20602;-74
2022/06/13 08:17:27;;;;;;;6.50;4.83;;;22.60;99.90;;;;;;5096393;28;20678;-76
2022/06/13 08:19:53;;;;;;;4.83;4.33;;;22.60;99.90;;;;;;5094682;28;20613;-76
2022/06/13 08:22:20;;;;;;;6.87;4.20;;;22.90;99.90;;;;;;5096051;28;20611;-76
2022/06/13 08:24:46;;;;;;;6.60;4.83;;;22.70;99.90;;;;;;5096012;28;20609;-76
2022/06/13 08:27:13;;;;;;;8.53;5.00;;;22.20;99.90;;;;;;5094086;28;20624;-76
2022/06/13 08:29:40;;;;;;;5.23;4.20;;;21.40;99.90;;;;;;5096505;28;20657;-76
2022/06/13 08:32:06;;;;;;;8.00;4.83;;;21.50;99.90;;;;;;5096187;28;20614;-76
2022/06/13 08:34:33;;;;;;;6.40;4.40;;;21.40;99.90;;;;;;5095375;28;20985;-76
2022/06/13 08:36:59;;;;;;;5.33;4.90;;;20.90;99.90;;;;;;5094918;28;20636;-76
2022/06/13 08:39:26;;;;;;;6.27;4.97;;;20.90;99.90;;;;;;5095588;28;21144;-76
2022/06/13 08:42:06;;;;;;;5.47;4.90;;;21.30;99.90;;;;;;5094814;28;21132;-76
2022/06/13 08:44:58;;;;;;;5.20;4.80;;;21.70;99.90;;;;;;5095903;28;20572;-75
2022/06/13 08:47:46;;;;;;;5.50;5.13;;;22.40;99.90;;;;;;5095809;28;20698;-76
2022/06/13 08:50:58;;;;;;;;;;;;;;;;;;;;;
2022/06/13 08:53:34;;;;;;;5.83;4.70;;;22.90;99.90;;;;;;5092252;28;20606;-76
2022/06/13 08:56:23;;;;;;;4.67;4.33;;;23.20;99.90;;;;;;5095413;28;20585;-75
2022/06/13 08:58:55;;;;;;;6.20;5.50;;;23.00;99.90;;;;;;5094879;28;20629;-77
2022/06/13 09:01:41;;;;;;;4.90;4.60;;;22.80;99.90;;;;;;5095713;28;20660;-74
2022/06/13 09:04:33;;;;;;;4.50;4.30;;;22.70;99.90;;;;;;5094985;28;20581;-75
2022/06/13 09:07:12;;;;;;;7.57;4.97;;;22.80;99.90;;;;;;5094770;28;20629;-74
2022/06/13 09:10:13;;;;;;;5.83;4.90;;;22.80;99.90;;;;;;5094737;28;20625;-76
2022/06/13 09:12:43;;;;;;;4.70;4.40;;;23.20;99.90;;;;;;5094239;28;20604;-74
2022/06/13 09:15:16;;;;;;;5.10;4.60;;;23.30;99.90;;;;;;5095308;28;20630;-75
2022/06/13 09:18:01;;;;;;;4.60;4.40;;;22.70;99.90;;;;;;5095549;28;20573;-75
2022/06/13 09:20:46;;;;;;;4.57;4.30;;;21.80;99.90;;;;;;5095446;28;20621;-76
2022/06/13 09:23:19;;;;;;;5.03;4.47;;;22.00;99.90;;;;;;5095834;28;20566;-78
2022/06/13 09:26:14;;;;;;;5.20;4.87;;;22.60;99.90;;;;;;5094274;28;20609;-75
2022/06/13 09:29:05;;;;;;;5.83;4.90;;;22.80;99.90;;;;;;5094834;28;20676;-75
2022/06/13 09:31:43;;;;;;;5.00;4.63;;;23.00;99.90;;;;;;5095144;28;20770;-75
2022/06/13 09:34:18;;;;;;;4.57;4.37;;;23.10;99.90;;;;;;5095190;28;20580;-76
2022/06/13 09:37:44;;;;;;;4.37;4.17;;;22.70;99.90;;;;;;5094966;28;21107;-75
2022/06/13 09:40:19;;;;;;;4.80;4.50;;;22.80;99.90;;;;;;5072836;28;20627;-76
2022/06/13 09:43:08;;;;;;;5.77;5.27;;;22.70;99.90;;;;;;5073249;28;20574;-75
2022/06/13 09:45:40;;;;;;;4.90;4.70;;;22.70;99.90;;;;;;5088484;28;20644;-75
2022/06/13 09:48:28;;;;;;;5.23;4.90;;;22.80;99.90;;;;;;5096533;28;20663;-76
2022/06/13 09:51:00;;;;;;;5.53;4.90;;;23.30;99.90;;;;;;5095942;28;21143;-75
2022/06/13 09:54:14;;;;;;;7.10;5.50;;;23.20;99.90;;;;;;5096142;28;20581;-74
2022/06/13 09:57:05;;;;;;;5.27;4.87;;;23.50;99.90;;;;;;5079762;28;21168;-76
2022/06/13 10:00:09;;;;;;;5.30;5.00;;;23.40;99.90;;;;;;5095096;28;20569;-74
2022/06/13 10:03:01;;;;;;;6.90;6.13;;;23.40;99.90;;;;;;5093635;28;21134;-75
2022/06/13 10:05:34;;;;;;;5.33;4.93;;;23.40;99.90;;;;;;5092948;28;20702;-74
2022/06/13 10:08:27;;;;;;;7.20;5.30;;;23.30;99.90;;;;;;5092165;28;20609;-76
2022/06/13 10:11:25;;;;;;;5.93;5.27;;;23.50;99.90;;;;;;5074858;28;20614;-77
2022/06/13 10:14:20;;;;;;;5.77;5.00;;;23.40;99.90;;;;;;5066496;28;20633;-78
2022/06/13 10:16:52;;;;;;;5.40;5.10;;;24.40;99.90;;;;;;5097515;28;21199;-77
2022/06/13 10:20:04;;;;;;;5.43;5.13;;;24.50;99.90;;;;;;5096887;28;20621;-77
2022/06/13 10:22:57;;;;;;;5.10;4.83;;;23.80;99.90;;;;;;5068368;28;20613;-77
2022/06/13 10:25:45;;;;;;;6.10;5.60;;;23.70;99.90;;;;;;5096392;28;20605;-77
2022/06/13 10:28:48;;;;;;;5.63;5.33;;;23.30;99.90;;;;;;5096030;28;20613;-77
2022/06/13 10:31:31;;;;;;;5.27;4.80;;;23.90;99.90;;;;;;5097945;28;21107;-77
2022/06/13 10:34:15;;;;;;;5.70;5.30;;;24.90;99.90;;;;;;5098374;28;20574;-77
2022/06/13 10:37:00;;;;;;;5.47;5.17;;;25.40;99.90;;;;;;5098672;28;20584;-77
2022/06/13 10:39:28;;;;;;;6.00;5.40;;;26.00;99.90;;;;;;5098265;28;20673;-78
2022/06/13 10:42:00;;;;;;;5.70;5.30;;;24.90;99.90;;;;;;5095445;28;21254;-77
2022/06/13 10:44:27;;;;;;;5.93;5.53;;;24.60;99.90;;;;;;5094721;28;20609;-76
2022/06/13 10:47:04;;;;;;;7.17;5.70;;;25.40;99.90;;;;;;5093881;28;20613;-76
2022/06/13 10:49:43;;;;;;;5.53;5.23;;;26.10;99.90;;;;;;5094008;28;20656;-76
2022/06/13 10:52:14;;;;;;;5.97;5.47;;;26.10;99.90;;;;;;5094541;28;20618;-76
2022/06/13 10:54:50;;;;;;;5.70;5.30;;;25.60;99.90;;;;;;5096801;28;20580;-75
2022/06/13 10:57:29;;;;;;;5.80;5.50;;;25.20;99.90;;;;;;5093871;28;20573;-75
2022/06/13 11:00:21;;;;;;;5.97;5.60;;;25.60;99.90;;;;;;5093654;28;20597;-74
2022/06/13 11:02:49;;;;;;;5.47;5.17;;;26.00;99.90;;;;;;5094039;28;20578;-74
2022/06/13 11:05:19;;;;;;;5.87;5.37;;;25.50;99.90;;;;;;5092918;28;20621;-73
2022/06/13 11:07:58;;;;;;;5.60;5.30;;;25.90;99.90;;;;;;5093304;28;20572;-73
2022/06/13 11:10:31;;;;;;;5.93;5.50;;;26.80;99.90;;;;;;5093018;28;20629;-76
2022/06/13 11:12:58;;;;;;;5.17;4.77;;;25.60;99.90;;;;;;5093809;28;20585;-76
2022/06/13 11:24:50;;;;;;;5.50;5.20;;;25.30;99.90;;;;;;5097477;28;20578;-76
2022/06/13 11:27:42;;;;;;;6.37;5.80;;;25.30;99.90;;;;;;5096916;28;20581;-75
2022/06/13 11:30:40;;;;;;;5.60;5.20;;;25.60;99.90;;;;;;5096754;28;20625;-75
2022/06/13 11:33:27;;;;;;;6.80;5.80;;;26.50;99.90;;;;;;5096960;28;20588;-74
2022/06/13 11:36:21;;;;;;;6.23;5.50;;;26.00;99.90;;;;;;5096897;28;20613;-74
2022/06/13 11:39:03;;;;;;;5.20;4.80;;;25.40;99.90;;;;;;5097022;28;20925;-73
2022/06/13 11:41:45;;;;;;;5.80;5.30;;;25.10;99.90;;;;;;5097918;28;20572;-73
2022/06/13 11:44:17;;;;;;;6.00;5.50;;;25.20;99.90;;;;;;5095616;28;20605;-74
2022/06/13 11:46:45;;;;;;;7.40;5.10;;;25.10;99.90;;;;;;5096809;28;20621;-74
2022/06/13 11:49:15;;;;;;;5.63;5.20;;;24.90;99.90;;;;;;5096876;28;20664;-74
2022/06/13 11:51:47;;;;;;;5.83;5.43;;;24.90;99.90;;;;;;5098891;28;20605;-77
2022/06/13 11:54:23;;;;;;;6.00;5.50;;;25.30;99.90;;;;;;5098659;28;20590;-77
2022/06/13 11:56:50;;;;;;;6.00;5.50;;;25.70;99.90;;;;;;5097348;28;21200;-75
2022/06/13 11:59:18;;;;;;;6.70;6.20;;;26.20;99.90;;;;;;5096770;28;20621;-75
2022/06/13 12:01:45;;;;;;;6.50;6.13;;;26.80;99.90;;;;;;5096580;28;20608;-74
2022/06/13 12:04:11;;;;;;;6.40;5.90;;;28.70;99.90;;;;;;5095660;28;20630;-74
2022/06/13 12:06:44;;;;;;;6.30;5.90;;;28.10;99.90;;;;;;5096454;28;20616;-73
2022/06/13 12:09:20;;;;;;;6.10;5.80;;;28.10;99.90;;;;;;5096034;28;20976;-76
2022/06/13 12:11:56;;;;;;;6.80;6.20;;;28.80;99.90;;;;;;5097403;28;21100;-74
2022/06/13 12:14:28;;;;;;;6.80;6.37;;;30.20;99.90;;;;;;5094650;28;20613;-74
2022/06/13 12:17:05;;;;;;;6.50;6.07;;;30.30;99.90;;;;;;5095847;28;20629;-75
2022/06/13 12:19:43;;;;;;;6.90;6.50;;;29.30;99.90;;;;;;5096217;28;20574;-73
2022/06/13 12:22:19;;;;;;;6.17;5.97;;;28.10;99.90;;;;;;5095284;28;20621;-73
2022/06/13 12:24:58;;;;;;;6.40;6.10;;;28.10;99.90;;;;;;5095500;28;20577;-73
2022/06/13 12:27:41;;;;;;;6.30;6.00;;;28.10;99.90;;;;;;5095523;28;20629;-78
2022/06/13 12:30:22;;;;;;;6.50;6.10;;;27.30;99.90;;;;;;5098199;28;20637;-78
2022/06/13 12:33:02;;;;;;;6.60;6.10;;;26.60;99.90;;;;;;5098581;28;20655;-77
2022/06/13 12:35:48;;;;;;;5.83;5.63;;;26.10;99.90;;;;;;5097116;28;20624;-78
2022/06/13 12:38:35;;;;;;;6.83;6.43;;;26.40;99.90;;;;;;5102832;28;21047;-78
2022/06/13 12:41:43;;;;;;;6.30;5.90;;;26.70;99.90;;;;;;5098233;28;20649;-77
2022/06/13 12:44:28;;;;;;;5.87;5.50;;;26.40;99.90;;;;;;5060009;28;20622;-76
2022/06/13 12:47:21;;;;;;;6.17;5.87;;;26.60;99.90;;;;;;5098030;28;20577;-75
2022/06/13 12:49:59;;;;;;;5.80;5.50;;;27.60;99.90;;;;;;5096177;28;20668;-76
2022/06/13 12:52:38;;;;;;;6.20;5.60;;;28.70;99.90;;;;;;5096912;28;20613;-75
2022/06/13 12:55:12;;;;;;;6.40;5.90;;;26.90;99.90;;;;;;5098213;28;20632;-75
2022/06/13 12:57:48;;;;;;;6.57;6.07;;;27.50;99.90;;;;;;5096010;28;21155;-74
2022/06/13 13:00:25;;;;;;;6.23;5.83;;;28.20;99.90;;;;;;5095938;28;20604;-75
2022/06/13 13:03:03;;;;;;;5.83;5.43;;;29.50;99.90;;;;;;5097360;28;20566;-77
2022/06/13 13:05:52;;;;;;;6.30;5.70;;;28.00;99.90;;;;;;5096321;28;21099;-77
2022/06/13 13:08:37;;;;;;;6.00;5.70;;;26.20;99.90;;;;;;5097342;28;20570;-77
2022/06/13 13:11:25;;;;;;;7.13;6.30;;;26.10;99.90;;;;;;5095681;28;20625;-76
2022/06/13 13:14:00;;;;;;;5.63;5.33;;;25.50;99.90;;;;;;5096962;28;20578;-77
2022/06/13 13:17:04;;;;;;;6.27;5.70;;;25.70;99.90;;;;;;5095836;28;20680;-76
2022/06/13 13:19:45;;;;;;;6.00;5.50;;;25.80;99.90;;;;;;5097520;28;20601;-76
2022/06/13 13:22:16;;;;;;;6.63;6.03;;;25.70;99.90;;;;;;5096731;28;20593;-76
2022/06/13 13:24:57;;;;;;;6.23;5.73;;;25.10;99.90;;;;;;5096062;28;20653;-76
2022/06/13 13:27:26;;;;;;;6.03;5.63;;;25.10;99.90;;;;;;5095171;28;21112;-77
2022/06/13 13:30:01;;;;;;;6.53;5.93;;;24.80;99.90;;;;;;5098007;28;20649;-76
2022/06/13 13:32:40;;;;;;;6.40;5.80;;;25.70;99.90;;;;;;5096833;28;20707;-77
2022/06/13 13:35:28;;;;;;;6.10;5.80;;;27.60;99.90;;;;;;5096832;28;21151;-77
2022/06/13 13:38:07;;;;;;;6.27;5.83;;;29.70;99.90;;;;;;5096344;28;20599;-75
2022/06/13 13:40:43;;;;;;;7.00;5.80;;;29.80;99.90;;;;;;5093535;28;20669;-75
2022/06/13 13:43:26;;;;;;;6.30;5.80;;;27.70;99.90;;;;;;5094726;28;20968;-75
2022/06/13 13:45:56;;;;;;;6.50;6.13;;;25.90;99.90;;;;;;5096435;28;20581;-75
2022/06/13 13:48:42;;;;;;;6.07;5.77;;;26.40;99.90;;;;;;5095687;28;21312;-76
2022/06/13 13:51:47;;;;;;;6.50;5.87;;;26.70;99.90;;;;;;5096975;28;20655;-76
2022/06/13 13:54:32;;;;;;;8.30;6.53;;;28.80;99.90;;;;;;5052979;28;20639;-75
2022/06/13 13:57:21;;;;;;;6.17;5.83;;;29.40;99.90;;;;;;5092559;28;20715;-74
2022/06/13 13:59:51;;;;;;;7.63;5.90;;;30.70;99.90;;;;;;5095140;28;20586;-74
2022/06/13 14:02:26;;;;;;;6.60;6.30;;;30.90;99.90;;;;;;5094973;28;20625;-74